Time;durP1;ratioP1;P1;durP2;ratioP2;P2;SDS_P1;SDS_P2;PMS_P1;PMS_P2;Temp;Humidity;BMP_temperature;BMP_pressure;BME280_temperature;BME280_humidity;BME280_pressure;Samples;Min_cycle;Max_cycle;Signal;HPM_P1;HPM_P2
2022/03/15 00:00:02;;;;;;;;;;;6.90;30.20;;;;;;5112540;28;20264;-69
2022/03/15 00:02:28;;;;;;;;;;;6.90;30.60;;;;;;5113325;28;20287;-69
2022/03/15 00:04:55;;;;;;;;;;;;;;;;;;5094227;28;19969;-70
2022/03/15 00:07:21;;;;;;;;;;;;;;;;;;5112703;28;19939;-69
2022/03/15 00:09:47;;;;;;;;;;;;;;;;;;5112930;28;19908;-74
2022/03/15 00:12:14;;;;;;;;;;;7.10;30.70;;;;;;5094496;28;19907;-69
2022/03/15 00:14:41;;;;;;;;;;;;;;;;;;5094856;28;19908;-69
2022/03/15 00:17:07;;;;;;;;;;;7.00;28.10;;;;;;5112229;28;19962;-71
2022/03/15 00:19:33;;;;;;;;;;;;;;;;;;5113113;28;19943;-69
2022/03/15 00:21:58;;;;;;;;;;;6.80;32.80;;;;;;5112064;28;20368;-69
2022/03/15 00:24:25;;;;;;;;;;;6.90;32.50;;;;;;5112977;28;19961;-69
2022/03/15 00:26:51;;;;;;;;;;;;;;;;;;5112482;28;19908;-73
2022/03/15 00:29:18;;;;;;;;;;;6.90;31.00;;;;;;5112894;28;19907;-69
2022/03/15 00:31:46;;;;;;;;;;;7.00;30.80;;;;;;5112922;28;19994;-69
2022/03/15 00:34:12;;;;;;;;;;;7.00;30.60;;;;;;5111921;28;19936;-69
2022/03/15 00:36:37;;;;;;;;;;;7.20;31.00;;;;;;5112569;28;19924;-69
2022/03/15 00:39:04;;;;;;;;;;;7.20;29.50;;;;;;5111947;28;19914;-69
2022/03/15 00:41:29;;;;;;;;;;;7.20;28.90;;;;;;5112716;28;19907;-69
2022/03/15 00:43:55;;;;;;;;;;;7.20;27.80;;;;;;5093790;28;19908;-69
2022/03/15 00:46:20;;;;;;;;;;;7.30;27.30;;;;;;5094453;28;19912;-69
2022/03/15 00:48:46;;;;;;;;;;;7.20;27.30;;;;;;5112702;28;19908;-69
2022/03/15 00:51:11;;;;;;;;;;;6.90;27.60;;;;;;5111775;28;19908;-70
2022/03/15 00:53:37;;;;;;;;;;;6.80;30.40;;;;;;5112795;28;19915;-69
2022/03/15 00:56:03;;;;;;;;;;;;;;;;;;5093520;28;19961;-69
2022/03/15 00:58:28;;;;;;;;;;;7.10;32.30;;;;;;5112659;28;19912;-69
2022/03/15 01:00:54;;;;;;;;;;;7.20;29.90;;;;;;5111841;28;19908;-70
2022/03/15 01:03:20;;;;;;;;;;;7.30;28.10;;;;;;5094359;28;19907;-69
2022/03/15 01:05:45;;;;;;;;;;;7.10;27.70;;;;;;5112470;28;19916;-69
2022/03/15 01:08:11;;;;;;;;;;;7.00;29.40;;;;;;5111849;28;19911;-69
2022/03/15 01:10:36;;;;;;;;;;;7.10;28.90;;;;;;5094360;28;19952;-69
2022/03/15 01:13:02;;;;;;;;;;;6.80;30.60;;;;;;5112043;28;20387;-69
2022/03/15 01:15:29;;;;;;;;;;;6.70;33.60;;;;;;5112740;28;20394;-69
2022/03/15 01:17:55;;;;;;;;;;;;;;;;;;5111594;28;19912;-71
2022/03/15 01:20:21;;;;;;;;;;;;;;;;;;5116090;28;20481;-69
2022/03/15 01:22:47;;;;;;;;;;;6.60;39.00;;;;;;5116273;28;19908;-69
2022/03/15 01:25:13;;;;;;;;;;;;;;;;;;5097198;28;19990;-69
2022/03/15 01:27:38;;;;;;;;;;;6.90;37.10;;;;;;5097979;28;20378;-69
2022/03/15 01:30:04;;;;;;;;;;;6.90;35.70;;;;;;5115431;28;20006;-69
2022/03/15 01:32:29;;;;;;;;;;;6.90;35.30;;;;;;5116309;28;19946;-69
2022/03/15 01:34:55;;;;;;;;;;;;;;;;;;5115305;28;19908;-73
2022/03/15 01:37:21;;;;;;;;;;;6.70;35.30;;;;;;5115834;28;19986;-69
2022/03/15 01:39:46;;;;;;;;;;;6.40;39.00;;;;;;5116271;28;19908;-69
2022/03/15 01:42:12;;;;;;;;;;;6.30;43.50;;;;;;5115210;28;20420;-69
2022/03/15 01:44:44;;;;;;;;;;;6.50;45.60;;;;;;5115946;28;20311;-69
2022/03/15 01:47:09;;;;;;;;;;;6.50;44.70;;;;;;5096799;28;19908;-69
2022/03/15 01:49:35;;;;;;;;;;;6.30;45.80;;;;;;5115874;28;19956;-69
2022/03/15 01:52:01;;;;;;;;;;;6.30;47.10;;;;;;5114853;28;20418;-69
2022/03/15 01:54:26;;;;;;;;;;;6.40;48.10;;;;;;5115813;28;20010;-69
2022/03/15 01:56:52;;;;;;;;;;;;;;;;;;5115691;28;19911;-69
2022/03/15 01:59:18;;;;;;;;;;;;;;;;;;5115068;28;19969;-69
2022/03/15 02:01:44;;;;;;;;;;;6.60;44.60;;;;;;5097371;28;19931;-69
2022/03/15 02:04:10;;;;;;;;;;;6.60;43.40;;;;;;5096519;28;19915;-69
2022/03/15 02:06:36;;;;;;;;;;;6.40;43.40;;;;;;5115788;28;20276;-70
2022/03/15 02:09:14;;;;;;;;;;;6.30;46.10;;;;;;5114684;28;19977;-70
2022/03/15 02:11:44;;;;;;;;;;;6.50;47.20;;;;;;5097108;28;20299;-69
2022/03/15 02:14:09;;;;;;;;;;;6.70;46.70;;;;;;5114655;28;19908;-69
2022/03/15 02:16:35;;;;;;;;;;;6.70;44.90;;;;;;5096895;28;19911;-70
2022/03/15 02:19:01;;;;;;;;;;;;;;;;;;5114459;28;20365;-69
2022/03/15 02:21:27;;;;;;;;;;;6.70;45.50;;;;;;5115265;28;19908;-70
2022/03/15 02:23:52;;;;;;;;;;;6.60;44.70;;;;;;5115036;28;19912;-69
2022/03/15 02:26:18;;;;;;;;;;;;;;;;;;5096016;28;19911;-69
2022/03/15 02:28:44;;;;;;;;;;;6.50;45.00;;;;;;5096812;28;19907;-69
2022/03/15 02:31:09;;;;;;;;;;;6.60;45.40;;;;;;5095674;28;20303;-70
2022/03/15 02:33:35;;;;;;;;;;;6.60;44.40;;;;;;5115010;28;19957;-69
2022/03/15 02:36:01;;;;;;;;;;;6.50;44.60;;;;;;5113931;28;19935;-70
2022/03/15 02:38:26;;;;;;;;;;;6.50;45.80;;;;;;5114968;28;20364;-69
2022/03/15 02:40:52;;;;;;;;;;;6.50;45.60;;;;;;5114892;28;20275;-70
2022/03/15 02:43:17;;;;;;;;;;;6.30;46.40;;;;;;5095809;28;19911;-70
2022/03/15 02:45:43;;;;;;;;;;;6.20;48.00;;;;;;5114804;28;19942;-69
2022/03/15 02:48:09;;;;;;;;;;;6.40;48.30;;;;;;5096067;28;19915;-70
2022/03/15 02:50:34;;;;;;;;;;;6.40;47.20;;;;;;5114678;28;19908;-69
2022/03/15 02:53:00;;;;;;;;;;;;;;;;;;5113838;28;19957;-73
2022/03/15 02:55:26;;;;;;;;;;;5.90;51.40;;;;;;5114618;28;19996;-69
2022/03/15 02:57:51;;;;;;;;;;;6.10;55.10;;;;;;5114692;28;19919;-69
2022/03/15 03:00:17;;;;;;;;;;;6.20;54.90;;;;;;5113769;28;19965;-69
2022/03/15 03:02:43;;;;;;;;;;;6.10;53.90;;;;;;5114449;28;20326;-69
2022/03/15 03:05:09;;;;;;;;;;;6.30;54.70;;;;;;5113550;28;20364;-70
2022/03/15 03:07:34;;;;;;;;;;;6.20;53.90;;;;;;5114352;28;20279;-69
2022/03/15 03:10:00;;;;;;;;;;;;;;;;;;5113966;28;19915;-74
2022/03/15 03:12:27;;;;;;;;;;;6.00;57.00;;;;;;5114346;28;20356;-69
2022/03/15 03:14:55;;;;;;;;;;;6.00;58.10;;;;;;5114222;28;19994;-69
2022/03/15 03:17:23;;;;;;;;;;;;;;;;;;5094980;28;19908;-69
2022/03/15 03:19:48;;;;;;;;;;;6.00;60.20;;;;;;5114171;28;19908;-69
2022/03/15 03:22:14;;;;;;;;;;;6.20;58.40;;;;;;5113133;28;20275;-70
2022/03/15 03:24:39;;;;;;;;;;;6.10;56.90;;;;;;5114010;28;19908;-69
2022/03/15 03:27:05;;;;;;;;;;;6.20;58.20;;;;;;5094907;28;20360;-69
2022/03/15 03:29:30;;;;;;;;;;;6.20;57.10;;;;;;5113887;28;19908;-69
2022/03/15 03:31:56;;;;;;;;;;;6.20;56.50;;;;;;5113904;28;20428;-69
2022/03/15 03:34:22;;;;;;;;;;;6.20;56.00;;;;;;5113068;28;19918;-69
2022/03/15 03:36:47;;;;;;;;;;;6.20;55.40;;;;;;5113500;28;20053;-69
2022/03/15 03:39:13;;;;;;;;;;;6.20;54.60;;;;;;5112838;28;19908;-69
2022/03/15 03:41:38;;;;;;;;;;;6.00;55.40;;;;;;5112995;28;19912;-69
2022/03/15 03:44:04;;;;;;;;;;;6.00;57.70;;;;;;5094571;28;19915;-70
2022/03/15 03:46:31;;;;;;;;;;;6.10;57.50;;;;;;5113582;28;19961;-69
2022/03/15 03:48:57;;;;;;;;;;;6.00;58.50;;;;;;5113574;28;19991;-69
2022/03/15 03:51:23;;;;;;;;;;;6.20;59.20;;;;;;5112716;28;19964;-69
2022/03/15 03:53:48;;;;;;;;;;;6.30;57.00;;;;;;5113344;28;19908;-69
2022/03/15 03:56:14;;;;;;;;;;;6.20;55.90;;;;;;5112494;28;20359;-69
2022/03/15 03:58:39;;;;;;;;;;;5.90;56.30;;;;;;5113344;28;20268;-69
2022/03/15 04:01:05;;;;;;;;;;;;;;;;;;5112550;28;20003;-70
2022/03/15 04:03:32;;;;;;;;;;;;;;;;;;5113352;28;19953;-69
2022/03/15 04:05:58;;;;;;;;;;;5.90;63.10;;;;;;5113387;28;19912;-69
2022/03/15 04:08:24;;;;;;;;;;;6.00;61.00;;;;;;5112371;28;20068;-70
2022/03/15 04:10:50;;;;;;;;;;;6.10;62.50;;;;;;5113192;28;20320;-69
2022/03/15 04:13:17;;;;;;;;;;;6.20;61.90;;;;;;5112273;28;20006;-69
2022/03/15 04:15:43;;;;;;;;;;;6.30;60.20;;;;;;5113075;28;19908;-69
2022/03/15 04:18:09;;;;;;;;;;;6.10;59.80;;;;;;5093976;28;20337;-70
2022/03/15 04:20:35;;;;;;;;;;;6.00;61.30;;;;;;5112996;28;19908;-69
2022/03/15 04:23:02;;;;;;;;;;;;;;;;;;5112811;28;19947;-72
2022/03/15 04:25:27;;;;;;;;;;;5.90;63.80;;;;;;5112476;28;19911;-69
2022/03/15 04:27:56;;;;;;;;;;;;;;;;;;5113010;28;19908;-69
2022/03/15 04:30:22;;;;;;;;;;;6.10;64.20;;;;;;5112184;28;19927;-69
2022/03/15 04:32:48;;;;;;;;;;;6.20;63.00;;;;;;5112892;28;19951;-69
2022/03/15 04:35:14;;;;;;;;;;;6.30;61.40;;;;;;5112048;28;19946;-70
2022/03/15 04:37:39;;;;;;;;;;;6.20;60.30;;;;;;5112755;28;19919;-70
2022/03/15 04:40:07;;;;;;;;;;;;;;;;;;5093981;28;19957;-73
2022/03/15 04:42:32;;;;;;;;;;;6.20;62.40;;;;;;5094491;28;19908;-69
2022/03/15 04:44:58;;;;;;;;;;;6.20;61.20;;;;;;5112769;28;20364;-70
2022/03/15 04:47:23;;;;;;;;;;;6.30;60.90;;;;;;5093712;28;20511;-69
2022/03/15 04:49:49;;;;;;;;;;;6.50;58.10;;;;;;5112810;28;19915;-69
2022/03/15 04:52:15;;;;;;;;;;;6.50;57.50;;;;;;5112034;28;19908;-70
2022/03/15 04:54:40;;;;;;;;;;;6.50;56.70;;;;;;5098739;28;20352;-69
2022/03/15 04:57:06;;;;;;;;;;;;;;;;;;5116347;28;19912;-73
2022/03/15 04:59:32;;;;;;;;;;;6.60;55.70;;;;;;5116621;28;19919;-71
2022/03/15 05:01:58;;;;;;;;;;;6.60;55.70;;;;;;5116855;28;19908;-70
2022/03/15 05:04:23;;;;;;;;;;;6.80;53.70;;;;;;5115921;28;20363;-71
2022/03/15 05:06:48;;;;;;;;;;;6.90;51.00;;;;;;5090116;28;19984;-71
2022/03/15 05:09:14;;;;;;;;;;;7.00;48.60;;;;;;5086559;28;19945;-71
2022/03/15 05:11:44;;;;;;;;;;;7.10;47.00;;;;;;5106285;28;20295;-71
2022/03/15 05:14:09;;;;;;;;;;;7.20;45.10;;;;;;5086410;28;19908;-72
2022/03/15 05:16:35;;;;;;;;;;;;;;;;;;5103920;28;19999;-72
2022/03/15 05:19:01;;;;;;;;;;;;;;;;;;5106698;28;20002;-74
2022/03/15 05:21:28;;;;;;;;;;;;;;;;;;5087639;28;19960;-71
2022/03/15 05:23:54;;;;;;;;;;;;;;;;;;5106867;28;19947;-72
2022/03/15 05:26:20;;;;;;;;;;;7.30;38.80;;;;;;5108305;28;20335;-71
2022/03/15 05:28:46;;;;;;;;;;;;;;;;;;5104369;28;20326;-71
2022/03/15 05:31:11;;;;;;;;;;;7.40;37.00;;;;;;5105762;28;19915;-82
2022/03/15 05:33:37;;;;;;;;;;;7.50;35.80;;;;;;5103522;28;20280;-69
2022/03/15 05:36:03;;;;;;;;;;;7.50;35.60;;;;;;5105047;28;19924;-69
2022/03/15 05:38:29;;;;;;;;;;;7.50;34.50;;;;;;5085871;28;19908;-69
2022/03/15 05:40:55;;;;;;;;;;;7.50;34.00;;;;;;5103664;28;19919;-69
2022/03/15 05:43:22;;;;;;;;;;;7.50;33.70;;;;;;5086515;28;20313;-69
2022/03/15 05:45:48;;;;;;;;;;;7.50;32.90;;;;;;5107426;28;19991;-69
2022/03/15 05:48:13;;;;;;;;;;;7.50;33.70;;;;;;5087983;28;19939;-69
2022/03/15 05:50:39;;;;;;;;;;;7.50;34.20;;;;;;5115812;28;20376;-69
2022/03/15 05:53:05;;;;;;;;;;;;;;;;;;5090826;28;19931;-73
2022/03/15 05:55:31;;;;;;;;;;;7.40;33.70;;;;;;5094844;28;19912;-69
2022/03/15 05:57:57;;;;;;;;;;;7.40;33.60;;;;;;5095262;28;19997;-69
2022/03/15 06:00:23;;;;;;;;;;;7.40;34.40;;;;;;5076321;28;20265;-69
2022/03/15 06:02:48;;;;;;;;;;;7.40;34.50;;;;;;5095881;28;19908;-69
2022/03/15 06:05:14;;;;;;;;;;;7.30;35.00;;;;;;5093508;28;19919;-69
2022/03/15 06:07:40;;;;;;;;;;;;;;;;;;5095150;28;20002;-68
2022/03/15 06:10:06;;;;;;;;;;;;;;;;;;5098321;28;20348;-73
2022/03/15 06:12:31;;;;;;;;;;;7.40;34.10;;;;;;5104810;28;19915;-69
2022/03/15 06:14:57;;;;;;;;;;;7.40;34.30;;;;;;5103850;28;19956;-69
2022/03/15 06:17:22;;;;;;;;;;;7.40;34.00;;;;;;5094106;28;19912;-69
2022/03/15 06:19:48;;;;;;;;;;;7.60;30.80;;;;;;5083193;28;20279;-67
2022/03/15 06:22:13;;;;;;;;;;;7.60;30.60;;;;;;5105708;28;19912;-69
2022/03/15 06:24:39;;;;;;;;;;;7.70;29.70;;;;;;5115273;28;19957;-68
2022/03/15 06:27:04;;;;;;;;;;;7.70;30.20;;;;;;5096865;28;20002;-68
2022/03/15 06:29:30;;;;;;;;;;;7.70;29.70;;;;;;5109207;28;20356;-68
2022/03/15 06:31:56;;;;;;;;;;;7.60;29.00;;;;;;5094780;28;20368;-68
2022/03/15 06:34:22;;;;;;;;;;;;;;;;;;5093859;28;19913;-68
2022/03/15 06:36:48;;;;;;;;;;;7.80;27.00;;;;;;5094190;28;20395;-68
2022/03/15 06:39:13;;;;;;;;;;;7.90;26.60;;;;;;5075689;28;19915;-69
2022/03/15 06:41:39;;;;;;;;;;;7.90;25.70;;;;;;5094390;28;19908;-67
2022/03/15 06:44:05;;;;;;;;;;;;;;;;;;5096903;28;19919;-69
2022/03/15 06:46:31;;;;;;;;;;;7.90;24.80;;;;;;5092635;28;20162;-68
2022/03/15 06:48:57;;;;;;;;;;;8.00;24.00;;;;;;5085893;28;19911;-68
2022/03/15 06:51:23;;;;;;;;;;;;;;;;;;5113893;28;19974;-69
2022/03/15 06:53:49;;;;;;;;;;;8.00;23.20;;;;;;5112248;28;20002;-69
2022/03/15 06:56:15;;;;;;;;;;;;;;;;;;5093525;28;19931;-68
2022/03/15 06:58:40;;;;;;;;;;;8.10;23.00;;;;;;5112251;28;20386;-68
2022/03/15 07:01:06;;;;;;;;;;;8.10;23.60;;;;;;5114503;28;19912;-68
2022/03/15 07:03:31;;;;;;;;;;;8.10;22.90;;;;;;5113645;28;20010;-68
2022/03/15 07:05:57;;;;;;;;;;;8.10;21.40;;;;;;5114323;28;19916;-68
2022/03/15 07:08:23;;;;;;;;;;;8.30;20.90;;;;;;5110740;28;19911;-69
2022/03/15 07:10:49;;;;;;;;;;;;;;;;;;5098033;28;20288;-68
2022/03/15 07:13:15;;;;;;;;;;;;;;;;;;5102074;28;19915;-69
2022/03/15 07:15:40;;;;;;;;;;;;;;;;;;5090467;28;20478;-68
2022/03/15 07:18:06;;;;;;;;;;;;;;;;;;5109403;28;19951;-68
2022/03/15 07:20:36;;;;;;;;;;;;;;;;;;5108068;28;19995;-67
2022/03/15 07:23:02;;;;;;;;;;;;;;;;;;5081093;28;19916;-68
2022/03/15 07:25:28;;;;;;;;;;;;;;;;;;5096446;28;20284;-68
2022/03/15 07:27:53;;;;;;;;;;;;;;;;;;5096559;28;19915;-67
2022/03/15 07:30:19;;;;;;;;;;;8.40;17.20;;;;;;5110034;28;19953;-67
2022/03/15 07:32:45;;;;;;;;;;;;;;;;;;5110158;28;19908;-68
2022/03/15 07:35:11;;;;;;;;;;;;;;;;;;5110253;28;20320;-73
2022/03/15 07:37:37;;;;;;;;;;;;;;;;;;5109783;28;19928;-71
2022/03/15 07:40:03;;;;;;;;;;;;;;;;;;5110420;28;19918;-70
2022/03/15 07:42:29;;;;;;;;;;;;;;;;;;5085820;28;19947;-69
2022/03/15 07:44:55;;;;;;;;;;;;;;;;;;5099681;28;19915;-70
2022/03/15 07:47:23;;;;;;;;;;;;;;;;;;5107384;28;19943;-70
2022/03/15 07:49:50;;;;;;;;;;;;;;;;;;5080547;28;19908;-70
2022/03/15 07:52:16;;;;;;;;;;;;;;;;;;5107234;28;19912;-75
2022/03/15 07:54:42;;;;;;;;;;;;;;;;;;5092244;28;19919;-70
2022/03/15 07:57:09;;;;;;;;;;;;;;;;;;5088952;28;20326;-69
2022/03/15 07:59:35;;;;;;;;;;;;;;;;;;5090225;28;19912;-71
2022/03/15 08:02:01;;;;;;;;;;;8.50;40.60;;;;;;5071607;28;19934;-71
2022/03/15 08:04:26;;;;;;;;;;;8.30;41.30;;;;;;5089101;28;19913;-70
2022/03/15 08:06:52;;;;;;;;;;;8.20;38.90;;;;;;5071168;28;20376;-71
2022/03/15 08:09:17;;;;;;;;;;;8.40;42.70;;;;;;5088690;28;20261;-71
2022/03/15 08:11:45;;;;;;;;;;;8.30;46.20;;;;;;5089871;28;20271;-72
2022/03/15 08:14:11;;;;;;;;;;;9.60;50.70;;;;;;5089561;28;20367;-71
2022/03/15 08:16:36;;;;;;;;;;;7.30;50.30;;;;;;5088973;28;19923;-70
2022/03/15 08:19:02;;;;;;;;;;;8.00;55.80;;;;;;5089372;28;19919;-69
2022/03/15 08:21:28;;;;;;;;;;;8.00;58.90;;;;;;5088972;28;19912;-70
2022/03/15 08:23:54;;;;;;;;;;;7.90;62.70;;;;;;5072235;28;19916;-69
2022/03/15 08:26:19;;;;;;;;;;;8.10;64.80;;;;;;5071237;28;19961;-71
2022/03/15 08:28:48;;;;;;;;;;;8.60;65.30;;;;;;5070870;28;20330;-70
2022/03/15 08:31:14;;;;;;;;;;;8.20;63.80;;;;;;5089346;28;20011;-75
2022/03/15 08:33:39;;;;;;;;;;;8.10;64.20;;;;;;5088192;28;20045;-70
2022/03/15 08:36:05;;;;;;;;;;;8.30;66.30;;;;;;5089060;28;19928;-70
2022/03/15 10:31:31;;;;;;;;;;;7.90;85.10;;;;;;5079260;28;20280;-71
2022/03/15 10:34:00;;;;;;;;;;;7.90;89.20;;;;;;5068312;28;19913;-71
2022/03/15 10:36:26;;;;;;;;;;;8.00;90.20;;;;;;5067516;28;19913;-72
2022/03/15 10:38:52;;;;;;;;;;;8.00;90.50;;;;;;5066998;28;19915;-70
2022/03/15 10:41:18;;;;;;;;;;;;;;;;;;5068608;28;20007;-72
2022/03/15 10:43:49;;;;;;;;;;;8.10;92.10;;;;;;5068112;28;20340;-70
2022/03/15 10:46:21;;;;;;;;;;;8.30;92.10;;;;;;5064624;28;19909;-75
2022/03/15 10:48:47;;;;;;;;;;;8.50;91.70;;;;;;5066386;28;20448;-70
2022/03/15 10:51:15;;;;;;;;;;;8.70;90.90;;;;;;5058764;28;20000;-71
2022/03/15 10:53:42;;;;;;;;;;;8.80;90.30;;;;;;5064584;28;19909;-70
2022/03/15 10:56:12;;;;;;;;;;;8.80;90.10;;;;;;5067072;28;19922;-71
2022/03/15 10:58:45;;;;;;;;;;;8.90;90.60;;;;;;5064726;28;19923;-70
2022/03/15 11:01:11;;;;;;;;;;;8.90;90.60;;;;;;5066739;28;19921;-70
2022/03/15 11:03:37;;;;;;;;;;;9.00;90.10;;;;;;5063024;28;19951;-71
2022/03/15 11:06:08;;;;;;;;;;;9.00;90.50;;;;;;5061867;28;19959;-70
2022/03/15 11:08:34;;;;;;;;;;;8.90;91.00;;;;;;5055206;28;20413;-70
2022/03/15 11:11:03;;;;;;;;;;;8.80;93.50;;;;;;5065232;28;20408;-71
2022/03/15 11:13:29;;;;;;;;;;;8.90;94.40;;;;;;5062561;28;19924;-70
2022/03/15 11:15:56;;;;;;;;;;;8.90;95.10;;;;;;5067163;28;19913;-71
2022/03/15 11:18:23;;;;;;;;;;;9.00;95.70;;;;;;5065253;28;19915;-75
2022/03/15 11:20:50;;;;;;;;;;;8.90;96.10;;;;;;5065308;28;19912;-70
2022/03/15 11:23:16;;;;;;;;;;;8.80;96.30;;;;;;5064981;28;19909;-71
2022/03/15 11:25:47;;;;;;;;;;;8.80;97.30;;;;;;5062763;28;19911;-70
2022/03/15 11:28:14;;;;;;;;;;;8.90;97.30;;;;;;5065241;28;20435;-70
2022/03/15 11:30:43;;;;;;;;;;;8.80;96.60;;;;;;5062877;28;20007;-70
2022/03/15 11:33:10;;;;;;;;;;;8.80;97.40;;;;;;5065138;28;19912;-70
2022/03/15 11:35:37;;;;;;;;;;;8.80;98.10;;;;;;5064014;28;19916;-71
2022/03/15 11:38:04;;;;;;;;;;;8.70;97.80;;;;;;5062385;28;19932;-71
2022/03/15 11:40:31;;;;;;;;;;;8.90;98.80;;;;;;5059329;28;19955;-71
2022/03/15 11:42:57;;;;;;;;;;;;;;;;;;5050440;28;19967;-72
2022/03/15 11:45:24;;;;;;;;;;;9.30;99.00;;;;;;5043451;28;20333;-76
2022/03/15 11:48:05;;;;;;;;;;;9.40;97.60;;;;;;5031176;28;19957;-72
2022/03/15 11:50:49;;;;;;;;;;;8.90;96.20;;;;;;5030857;28;20316;-72
2022/03/15 11:53:20;;;;;;;;;;;8.80;98.10;;;;;;5030339;28;20015;-72
2022/03/15 11:55:45;;;;;;;;;;;8.90;99.90;;;;;;5045009;28;20467;-71
2022/03/15 11:58:11;;;;;;;;;;;;;;;;;;5051678;28;19913;-76
2022/03/15 12:00:42;;;;;;;;;;;9.00;99.90;;;;;;5050924;28;19927;-73
2022/03/15 12:03:08;;;;;;;;;;;9.00;99.90;;;;;;5051481;28;19915;-73
2022/03/15 12:05:43;;;;;;;;;;;8.90;99.90;;;;;;5050750;28;19915;-70
2022/03/15 12:08:13;;;;;;;;;;;8.80;99.90;;;;;;5051439;28;19909;-70
2022/03/15 12:10:45;;;;;;;;;;;8.70;99.90;;;;;;5045415;28;20381;-71
2022/03/15 12:13:12;;;;;;;;;;;8.70;99.90;;;;;;5047777;28;19913;-70
2022/03/15 12:15:39;;;;;;;;;;;8.80;99.90;;;;;;5049362;28;19908;-72
2022/03/15 12:18:23;;;;;;;;;;;8.80;99.90;;;;;;5049968;28;19959;-72
2022/03/15 12:21:02;;;;;;;;;;;8.70;99.90;;;;;;5047066;28;20377;-71
2022/03/15 12:23:29;;;;;;;;;;;8.70;99.90;;;;;;5049931;28;19920;-74
2022/03/15 12:25:55;;;;;;;;;;;8.70;99.90;;;;;;5046863;28;19917;-70
2022/03/15 12:28:29;;;;;;;;;;;8.70;99.90;;;;;;5037895;28;20608;-70
2022/03/15 12:31:02;;;;;;;;;;;8.80;99.90;;;;;;5048701;28;19929;-70
2022/03/15 12:33:27;;;;;;;;;;;8.80;99.90;;;;;;5049524;28;20236;-75
2022/03/15 12:36:03;;;;;;;;;;;8.90;99.90;;;;;;5050140;28;19913;-71
2022/03/15 12:38:36;;;;;;;;;;;9.10;99.90;;;;;;5050021;28;19966;-75
2022/03/15 12:41:02;;;;;;;;;;;9.20;99.90;;;;;;5050862;28;19916;-71
2022/03/15 12:43:28;;;;;;;;;;;;;;;;;;5051907;28;19916;-75
2022/03/15 12:45:54;;;;;;;;;;;9.10;99.90;;;;;;5053888;28;19908;-70
2022/03/15 12:48:34;;;;;;;;;;;9.30;99.90;;;;;;5052635;28;19912;-69
2022/03/15 12:51:01;;;;;;;;;;;9.30;99.90;;;;;;5052482;28;19959;-70
2022/03/15 12:53:41;;;;;;;;;;;9.30;99.90;;;;;;5053098;28;19916;-76
2022/03/15 12:56:07;;;;;;;;;;;9.20;99.90;;;;;;5052543;28;19909;-70
2022/03/15 12:58:33;;;;;;;;;;;9.20;99.90;;;;;;5050358;28;19909;-71
2022/03/15 13:00:58;;;;;;;;;;;9.40;99.90;;;;;;5046574;28;19970;-72
2022/03/15 13:03:24;;;;;;;;;;;9.40;99.90;;;;;;5030603;28;19920;-73
2022/03/15 13:05:51;;;;;;;;;;;;;;;;;;5034989;28;20454;-69
2022/03/15 13:08:17;;;;;;;;;;;9.50;99.90;;;;;;5034352;28;19920;-70
2022/03/15 13:10:47;;;;;;;;;;;9.60;99.90;;;;;;5029011;28;19917;-71
2022/03/15 13:13:18;;;;;;;;;;;9.40;99.90;;;;;;5029158;28;19913;-69
2022/03/15 13:16:07;;;;;;;;;;;9.30;99.90;;;;;;5029626;28;20443;-69
2022/03/15 13:18:36;;;;;;;;;;;9.50;99.90;;;;;;5046302;28;19970;-69
2022/03/15 13:21:01;;;;;;;;;;;9.60;99.90;;;;;;5044624;28;19912;-68
2022/03/15 13:23:30;;;;;;;;;;;9.60;99.90;;;;;;5049393;28;19969;-73
2022/03/15 13:25:56;;;;;;;;;;;;;;;;;;5049452;28;20015;-69
2022/03/15 13:28:22;;;;;;;;;;;;;;;;;;5049877;28;20008;-70
2022/03/15 13:30:49;;;;;;;;;;;;;;;;;;5048725;28;19951;-70
2022/03/15 13:33:15;;;;;;;;;;;;;;;;;;5049817;28;19936;-69
2022/03/15 13:35:42;;;;;;;;;;;;;;;;;;5042126;28;19916;-70
2022/03/15 13:38:08;;;;;;;;;;;;;;;;;;5049676;28;19912;-69
2022/03/15 13:40:33;;;;;;;;;;;;;;;;;;5045415;28;19921;-67
2022/03/15 13:43:00;;;;;;;;;;;;;;;;;;5046300;28;19913;-70
2022/03/15 13:45:27;;;;;;;;;;;;;;;;;;5049084;28;19919;-67
2022/03/15 13:47:53;;;;;;;;;;;;;;;;;;5048906;28;19909;-69
2022/03/15 13:50:19;;;;;;;;;;;;;;;;;;5049532;28;19927;-69
2022/03/15 13:52:46;;;;;;;;;;;;;;;;;;5048707;28;20031;-68
2022/03/15 13:55:16;;;;;;;;;;;11.60;90.00;;;;;;5049359;28;19916;-68
2022/03/15 13:57:42;;;;;;;;;;;;;;;;;;5046189;28;20368;-71
2022/03/15 14:00:10;;;;;;;;;;;;;;;;;;5048062;28;20436;-70
2022/03/15 14:02:35;;;;;;;;;;;10.70;86.00;;;;;;5044770;28;19935;-70
2022/03/15 14:05:04;;;;;;;;;;;10.30;87.80;;;;;;5047754;28;19913;-68
2022/03/15 14:07:30;;;;;;;;;;;;;;;;;;5047646;28;19909;-74
2022/03/15 14:10:00;;;;;;;;;;;10.10;91.90;;;;;;5047019;28;20011;-68
2022/03/15 14:12:26;;;;;;;;;;;;;;;;;;5048091;28;19913;-68
2022/03/15 14:14:53;;;;;;;;;;;;;;;;;;5047140;28;20108;-69
2022/03/15 14:17:19;;;;;;;;;;;;;;;;;;5047949;28;19916;-68
2022/03/15 14:19:51;;;;;;;;;;;10.10;91.40;;;;;;5045932;28;19909;-71
2022/03/15 14:22:22;;;;;;;;;;;9.80;91.60;;;;;;5045112;28;20003;-68
2022/03/15 14:24:48;;;;;;;;;;;10.30;91.60;;;;;;5047077;28;19975;-70
2022/03/15 14:27:14;;;;;;;;;;;;;;;;;;5045603;28;20277;-68
2022/03/15 14:29:47;;;;;;;;;;;10.30;91.20;;;;;;5046546;28;19924;-69
2022/03/15 14:32:12;;;;;;;;;;;10.10;92.50;;;;;;5047836;28;19913;-68
2022/03/15 14:34:49;;;;;;;;;;;10.20;93.60;;;;;;5046423;28;20011;-71
2022/03/15 14:37:15;;;;;;;;;;;10.50;91.30;;;;;;5048046;28;19913;-73
2022/03/15 14:39:43;;;;;;;;;;;10.70;91.10;;;;;;5044567;28;19924;-71
2022/03/15 14:42:09;;;;;;;;;;;10.70;88.90;;;;;;5047570;28;19913;-72
2022/03/15 14:44:39;;;;;;;;;;;10.50;87.50;;;;;;5046775;28;19958;-72
2022/03/15 14:47:06;;;;;;;;;;;10.00;87.00;;;;;;5044350;28;19919;-74
2022/03/15 14:49:36;;;;;;;;;;;10.30;88.90;;;;;;5047016;28;19919;-79
2022/03/15 14:52:03;;;;;;;;;;;10.50;87.60;;;;;;5046253;28;20365;-71
2022/03/15 14:54:28;;;;;;;;;;;10.50;87.50;;;;;;5047496;28;20319;-71
2022/03/15 14:57:04;;;;;;;;;;;10.40;87.10;;;;;;5047848;28;19913;-72
2022/03/15 14:59:31;;;;;;;;;;;;;;;;;;5047941;28;19982;-78
2022/03/15 15:02:01;;;;;;;;;;;10.80;84.60;;;;;;5045132;28;19921;-72
2022/03/15 15:04:28;;;;;;;;;;;10.90;82.20;;;;;;5028442;28;20361;-71
2022/03/15 15:06:55;;;;;;;;;;;10.50;80.70;;;;;;5041471;28;20444;-73
2022/03/15 15:09:20;;;;;;;;;;;10.70;82.60;;;;;;5046589;28;19974;-76
2022/03/15 15:11:46;;;;;;;;;;;10.70;80.50;;;;;;5047438;28;19913;-71
2022/03/15 15:14:11;;;;;;;;;;;10.80;78.30;;;;;;5047842;28;19917;-71
2022/03/15 15:16:40;;;;;;;;;;;10.80;79.00;;;;;;5049046;28;19917;-73
2022/03/15 15:19:07;;;;;;;;;;;10.80;76.30;;;;;;5052269;28;19918;-73
2022/03/15 15:21:33;;;;;;;;;;;10.70;76.30;;;;;;5051474;28;20027;-77
2022/03/15 15:23:59;;;;;;;;;;;10.60;77.70;;;;;;5051936;28;20412;-71
2022/03/15 15:26:24;;;;;;;;;;;10.40;78.60;;;;;;5052047;28;19909;-72
2022/03/15 15:28:50;;;;;;;;;;;10.40;76.80;;;;;;5051314;28;19946;-73
2022/03/15 15:31:16;;;;;;;;;;;10.60;77.60;;;;;;5051944;28;19920;-72
2022/03/15 15:33:41;;;;;;;;;;;10.20;74.40;;;;;;5050753;28;20007;-72
2022/03/15 15:36:07;;;;;;;;;;;10.10;79.40;;;;;;5052133;28;19916;-73
2022/03/15 15:38:33;;;;;;;;;;;10.00;78.70;;;;;;5050475;28;20316;-77
2022/03/15 15:40:58;;;;;;;;;;;10.10;81.80;;;;;;5051433;28;19908;-72
2022/03/15 15:43:25;;;;;;;;;;;10.20;84.40;;;;;;5050520;28;19917;-72
2022/03/15 15:45:52;;;;;;;;;;;10.00;83.80;;;;;;5050591;28;19913;-71
2022/03/15 15:48:19;;;;;;;;;;;10.20;84.50;;;;;;5051970;28;19955;-72
2022/03/15 15:50:47;;;;;;;;;;;10.50;82.30;;;;;;5050761;28;20414;-73
2022/03/15 15:53:13;;;;;;;;;;;10.30;80.20;;;;;;5052157;28;19913;-74
2022/03/15 15:55:41;;;;;;;;;;;10.20;77.20;;;;;;5050118;28;19913;-72
2022/03/15 15:58:07;;;;;;;;;;;10.10;80.10;;;;;;5051113;28;20384;-74
2022/03/15 16:00:37;;;;;;;;;;;10.00;82.60;;;;;;5051576;28;20027;-74
2022/03/15 16:03:03;;;;;;;;;;;9.90;83.40;;;;;;5050116;28;19967;-73
2022/03/15 16:05:30;;;;;;;;;;;10.00;82.50;;;;;;5050187;28;19948;-72
2022/03/15 16:07:58;;;;;;;;;;;10.00;81.20;;;;;;5050493;28;20871;-72
2022/03/15 16:10:24;;;;;;;;;;;9.70;81.00;;;;;;5050734;28;19928;-74
2022/03/15 16:12:50;;;;;;;;;;;9.90;82.60;;;;;;5050464;28;19970;-71
2022/03/15 16:15:22;;;;;;;;;;;10.00;82.20;;;;;;5051181;28;19909;-73
2022/03/15 16:17:51;;;;;;;;;;;9.90;81.70;;;;;;5050505;28;19968;-71
2022/03/15 16:20:17;;;;;;;;;;;9.70;82.80;;;;;;5051154;28;20563;-73
2022/03/15 16:22:43;;;;;;;;;;;9.80;86.10;;;;;;5049794;28;20003;-72
2022/03/15 16:25:09;;;;;;;;;;;;;;;;;;5051026;28;20003;-72
2022/03/15 16:27:35;;;;;;;;;;;9.80;83.30;;;;;;5050559;28;20004;-77
2022/03/15 16:30:00;;;;;;;;;;;9.60;83.80;;;;;;5049974;28;19987;-72
2022/03/15 16:32:28;;;;;;;;;;;9.40;85.10;;;;;;5050548;28;19921;-73
2022/03/15 16:34:55;;;;;;;;;;;9.80;87.50;;;;;;5048121;28;19959;-71
2022/03/15 16:37:21;;;;;;;;;;;9.80;86.70;;;;;;5050591;28;19920;-71
2022/03/15 16:39:49;;;;;;;;;;;9.80;85.70;;;;;;5049702;28;19916;-72
2022/03/15 16:42:19;;;;;;;;;;;9.80;83.90;;;;;;5050313;28;19913;-70
2022/03/15 16:44:45;;;;;;;;;;;9.80;84.30;;;;;;5050025;28;19917;-71